Time;durP1;ratioP1;P1;durP2;ratioP2;P2;SDS_P1;SDS_P2;PMS_P1;PMS_P2;Temp;Humidity;BMP_temperature;BMP_pressure;BME280_temperature;BME280_humidity;BME280_pressure;Samples;Min_cycle;Max_cycle;Signal;HPM_P1;HPM_P2
2023/08/28 00:01:05;;;;;;;;;;;21.80;50.70;;;21.03;51.09;100568.63;12139301;19;19930;-84
2023/08/28 00:05:06;;;;;;;;;;;21.70;50.70;;;20.95;51.21;100566.78;12135986;19;20656;-84
2023/08/28 00:09:07;;;;;;;;;;;21.70;50.70;;;20.90;51.44;100577.03;12133032;19;20354;-83
2023/08/28 00:13:09;;;;;;;;;;;21.60;50.70;;;20.88;51.29;100584.31;12129847;19;19923;-84
2023/08/28 00:17:10;;;;;;;;;;;21.60;50.80;;;20.83;51.09;100580.47;12135210;19;19991;-84
2023/08/28 00:21:12;;;;;;;;;;;21.50;50.70;;;20.69;51.34;100569.41;12135999;19;19915;-84
2023/08/28 00:25:14;;;;;;;;;;;21.40;50.80;;;20.67;51.24;100589.13;12138367;19;20763;-84
2023/08/28 00:29:15;;;;;;;;;;;21.40;50.80;;;20.59;51.37;100589.88;12135186;19;19930;-84
2023/08/28 00:33:17;;;;;;;;;;;21.30;50.80;;;20.60;51.30;100596.03;12137688;19;20212;-84
2023/08/28 00:37:19;;;;;;;;;;;21.20;50.70;;;20.46;51.47;100586.75;12135882;19;20194;-84
2023/08/28 00:41:21;;;;;;;;;;;21.20;50.80;;;20.40;51.10;100592.69;12136974;19;19922;-84
2023/08/28 00:45:22;;;;;;;;;;;21.10;50.80;;;20.38;51.34;100602.59;12133966;19;19949;-84
2023/08/28 00:49:24;;;;;;;;;;;21.10;50.80;;;20.36;51.40;100605.41;12133098;19;19937;-85
2023/08/28 00:53:26;;;;;;;;;;;21.10;50.80;;;20.32;51.38;100618.13;12135830;19;19929;-84
2023/08/28 00:57:28;;;;;;;;;;;21.00;50.70;;;20.15;51.75;100597.75;12136335;19;19954;-84
2023/08/28 01:01:29;;;;;;;;;;;20.90;50.70;;;20.18;51.34;100623.97;12136312;19;19923;-84
2023/08/28 01:05:51;;;;;;;;;;;20.90;50.60;;;20.14;51.46;100635.84;12137094;19;20572;-85
2023/08/28 01:10:02;;;;;;;;;;;20.90;50.60;;;20.03;51.55;100623.63;12134263;19;20656;-84
2023/08/28 01:14:15;;;;;;;;;;;20.80;50.60;;;20.05;51.69;100634.91;12140758;19;19930;-84
2023/08/28 01:18:18;;;;;;;;;;;20.70;50.50;;;19.94;51.72;100642.25;12135458;19;20073;-84
2023/08/28 01:22:39;;;;;;;;;;;20.70;50.50;;;19.80;51.59;100628.50;12136801;19;19925;-82
2023/08/28 01:26:40;;;;;;;;;;;20.60;50.30;;;19.70;51.33;100633.00;12149104;19;19930;-82
2023/08/28 01:30:42;;;;;;;;;;;20.50;50.20;;;19.73;51.31;100659.19;12150579;19;20745;-82
2023/08/28 01:34:43;;;;;;;;;;;20.40;50.10;;;19.52;51.67;100640.00;12149720;19;20203;-82
2023/08/28 01:38:57;;;;;;;;;;;20.40;50.20;;;19.57;51.73;100654.47;12142581;19;19958;-82
2023/08/28 01:43:01;;;;;;;;;;;20.30;50.10;;;19.48;51.56;100650.06;12142064;19;19918;-82
2023/08/28 01:47:05;;;;;;;;;;;20.20;50.10;;;19.46;51.26;100660.78;12140697;19;20718;-82
2023/08/28 01:51:07;;;;;;;;;;;20.10;50.10;;;19.36;51.62;100660.00;12142881;19;21021;-82
2023/08/28 01:55:09;;;;;;;;;;;20.10;50.10;;;19.35;51.55;100662.78;12142051;19;20274;-82
2023/08/28 01:59:10;;;;;;;;;;;20.00;50.20;;;19.31;51.48;100648.13;12133406;19;20304;-82
2023/08/28 02:03:12;;;;;;;;;;;20.00;50.20;;;19.28;51.73;100654.59;12139123;19;19923;-82
2023/08/28 02:07:14;;;;;;;;;;;20.00;50.20;;;19.28;51.44;100657.25;12140830;19;19956;-82
2023/08/28 02:11:17;;;;;;;;;;;19.90;50.20;;;19.22;51.52;100648.03;12141723;19;20862;-82
2023/08/28 02:15:20;;;;;;;;;;;19.90;50.20;;;19.14;51.54;100645.25;12138327;19;19927;-82
2023/08/28 02:19:21;;;;;;;;;;;19.90;50.20;;;19.13;51.27;100646.25;12136669;19;20339;-82
2023/08/28 02:23:25;;;;;;;;;;;19.80;50.20;;;19.08;51.69;100637.06;12137921;19;19925;-82
2023/08/28 02:27:27;;;;;;;;;;;19.80;50.20;;;19.07;51.30;100638.88;12141556;19;20191;-82
2023/08/28 02:31:29;;;;;;;;;;;19.80;50.20;;;19.18;51.47;100659.88;12145258;19;19922;-82
2023/08/28 02:35:31;;;;;;;;;;;19.80;50.30;;;19.08;51.51;100645.00;12142845;19;19957;-82
2023/08/28 02:39:32;;;;;;;;;;;19.80;50.30;;;19.07;51.43;100649.47;12139187;19;19926;-82
2023/08/28 02:43:36;;;;;;;;;;;19.80;50.20;;;19.02;51.43;100651.69;12139799;19;19918;-82
2023/08/28 02:47:38;;;;;;;;;;;19.70;50.10;;;18.92;51.50;100659.63;12140113;19;19927;-83
2023/08/28 02:51:40;;;;;;;;;;;19.70;50.00;;;18.87;51.69;100661.88;12141160;19;20002;-83
2023/08/28 02:55:41;;;;;;;;;;;19.60;50.00;;;18.82;51.44;100666.72;12142543;19;19922;-82
2023/08/28 02:59:45;;;;;;;;;;;19.50;50.00;;;18.84;51.50;100680.66;12139203;19;19956;-82
2023/08/28 03:03:47;;;;;;;;;;;19.50;50.00;;;18.66;51.41;100671.72;12137809;19;20037;-82
2023/08/28 03:07:49;;;;;;;;;;;19.50;50.00;;;18.73;51.60;100689.53;12139918;19;20254;-82
2023/08/28 03:11:50;;;;;;;;;;;19.40;50.00;;;18.68;51.55;100702.34;12139364;19;20627;-82
2023/08/28 03:15:52;;;;;;;;;;;19.30;50.00;;;18.62;51.20;100702.91;12136735;19;19930;-82
2023/08/28 03:19:54;;;;;;;;;;;19.30;50.00;;;18.48;51.26;100685.63;12135032;19;19919;-82
2023/08/28 03:23:55;;;;;;;;;;;19.30;50.00;;;18.50;51.26;100702.19;12139490;19;20859;-82
2023/08/28 03:27:57;;;;;;;;;;;19.20;50.00;;;18.36;51.63;100699.94;12136202;19;20215;-82
2023/08/28 03:31:59;;;;;;;;;;;19.10;50.20;;;18.35;51.40;100711.47;12142363;19;19930;-82
2023/08/28 03:36:02;;;;;;;;;;;19.00;49.90;;;18.29;51.29;100733.19;12141251;19;19922;-82
2023/08/28 03:40:04;;;;;;;;;;;18.90;49.80;;;18.14;51.33;100722.97;12137905;19;19926;-82
2023/08/28 03:44:05;;;;;;;;;;;18.90;49.90;;;18.05;51.21;100726.41;12140050;19;20191;-82
2023/08/28 03:48:09;;;;;;;;;;;18.80;49.80;;;18.01;51.50;100743.53;12138122;19;19939;-82
2023/08/28 03:52:10;;;;;;;;;;;18.70;49.90;;;17.92;51.38;100744.28;12140289;19;19927;-82
2023/08/28 03:56:12;;;;;;;;;;;18.60;49.90;;;17.83;51.57;100753.03;12141657;19;20217;-82
2023/08/28 04:00:14;;;;;;;;;;;18.50;50.00;;;17.66;51.34;100736.78;12136567;19;19934;-82
2023/08/28 04:04:16;;;;;;;;;;;18.50;50.00;;;17.74;51.32;100761.69;12141719;19;19933;-82
2023/08/28 04:08:19;;;;;;;;;;;18.40;50.00;;;17.65;51.34;100758.84;12137562;19;20690;-82
2023/08/28 04:12:21;;;;;;;;;;;18.30;50.40;;;17.61;51.37;100749.53;12137767;19;20281;-83
2023/08/28 04:16:22;;;;;;;;;;;18.30;50.10;;;17.57;51.33;100748.09;12138132;19;19926;-82
2023/08/28 04:20:24;;;;;;;;;;;18.20;50.10;;;17.53;51.71;100744.06;12134504;19;20761;-83
2023/08/28 04:24:26;;;;;;;;;;;18.20;50.20;;;17.51;51.46;100726.66;12136352;19;19922;-83
2023/08/28 04:28:29;;;;;;;;;;;18.20;50.20;;;17.46;51.54;100727.88;12136995;19;20261;-83
2023/08/28 04:32:31;;;;;;;;;;;18.10;50.20;;;17.42;51.39;100713.28;12133250;19;19918;-83
2023/08/28 04:36:33;;;;;;;;;;;18.10;50.60;;;17.30;51.79;100694.97;12141597;19;20012;-83
2023/08/28 04:40:35;;;;;;;;;;;18.10;50.20;;;17.27;51.37;100711.09;12137400;19;20685;-83
2023/08/28 04:44:36;;;;;;;;;;;18.00;50.20;;;17.34;51.56;100717.53;12140159;19;19930;-83
2023/08/28 04:48:38;;;;;;;;;;;18.00;50.30;;;17.20;51.63;100697.53;12137896;19;20263;-83
2023/08/28 04:52:40;;;;;;;;;;;18.00;50.70;;;17.20;51.87;100698.41;12145526;19;20186;-83
2023/08/28 04:56:41;;;;;;;;;;;18.00;50.40;;;17.25;51.66;100709.41;12142198;19;19919;-83
2023/08/28 05:00:43;;;;;;;;;;;18.00;50.50;;;17.25;51.74;100716.47;12150782;19;21220;-83
2023/08/28 05:04:44;;;;;;;;;;;18.00;50.50;;;17.26;51.96;100723.44;12152731;19;19922;-83
2023/08/28 05:08:46;;;;;;;;;;;18.00;50.60;;;17.09;51.80;100694.97;12150251;19;19934;-83
2023/08/28 05:12:48;;;;;;;;;;;18.00;50.60;;;17.21;51.95;100723.81;12150853;19;19938;-83
2023/08/28 05:16:49;;;;;;;;;;;18.00;50.70;;;17.27;51.98;100740.94;12150403;19;20002;-83
2023/08/28 05:20:51;;;;;;;;;;;18.00;50.70;;;17.29;52.03;100733.75;12149263;19;19919;-83
2023/08/28 05:24:53;;;;;;;;;;;18.00;50.80;;;17.25;51.87;100717.34;12151495;19;20224;-83
2023/08/28 05:28:54;;;;;;;;;;;18.10;51.00;;;17.32;52.06;100725.56;12148399;19;19918;-83
2023/08/28 05:32:56;;;;;;;;;;;18.00;51.10;;;17.34;52.17;100712.25;12154530;19;19923;-83
2023/08/28 05:36:58;;;;;;;;;;;18.10;51.10;;;17.38;52.14;100724.22;12150092;19;20307;-83
2023/08/28 05:41:00;;;;;;;;;;;18.10;51.10;;;17.42;52.25;100715.91;12148958;19;20271;-83
2023/08/28 05:45:01;;;;;;;;;;;18.20;51.10;;;17.44;52.25;100711.34;12153207;19;19993;-83
2023/08/28 05:49:03;;;;;;;;;;;18.20;51.30;;;17.44;52.31;100710.50;12155754;19;20936;-82
2023/08/28 05:53:09;;;;;;;;;;;18.30;51.30;;;17.47;52.25;100711.09;12162647;19;20290;-83
2023/08/28 05:57:10;;;;;;;;;;;18.40;51.40;;;17.58;52.08;100723.38;12161012;19;20636;-84
2023/08/28 06:01:12;;;;;;;;;;;18.40;51.30;;;17.61;52.27;100722.28;12152718;19;20285;-84
2023/08/28 06:05:14;;;;;;;;;;;18.40;51.20;;;17.64;52.20;100727.31;12156511;19;20267;-85
2023/08/28 06:09:16;;;;;;;;;;;18.50;51.30;;;17.67;52.29;100733.16;12148045;19;19927;-84
2023/08/28 06:13:18;;;;;;;;;;;18.60;51.30;;;17.79;52.41;100738.38;12151517;19;19926;-83
2023/08/28 06:17:21;;;;;;;;;;;18.70;51.30;;;17.89;52.26;100736.63;12151176;19;20372;-84
2023/08/28 06:21:23;;;;;;;;;;;18.80;51.50;;;18.01;52.48;100751.44;12151405;19;19923;-83
2023/08/28 06:25:24;;;;;;;;;;;18.80;51.50;;;18.08;52.41;100742.00;12150219;19;21025;-84
2023/08/28 06:29:26;;;;;;;;;;;19.00;51.50;;;18.18;52.48;100730.66;12149373;19;20757;-83
2023/08/28 06:33:28;;;;;;;;;;;19.10;51.80;;;18.28;52.62;100734.13;12150327;19;19926;-84
2023/08/28 06:37:30;;;;;;;;;;;19.10;51.30;;;18.32;52.52;100732.91;12150914;19;19998;-84
2023/08/28 06:41:32;;;;;;;;;;;19.30;51.30;;;18.29;52.45;100722.59;12152097;19;19922;-82
2023/08/28 06:45:39;;;;;;;;;;;19.40;51.30;;;18.46;52.65;100731.69;12151131;19;19934;-84
2023/08/28 06:49:41;;;;;;;;;;;19.40;51.10;;;18.41;52.58;100718.88;12154080;19;19927;-82
2023/08/28 06:53:43;;;;;;;;;;;19.50;51.30;;;18.46;52.51;100715.81;12153256;19;19934;-84
2023/08/28 06:57:46;;;;;;;;;;;19.50;51.20;;;18.51;52.72;100727.66;12151326;19;19940;-84
2023/08/28 07:01:48;;;;;;;;;;;19.50;51.30;;;18.58;52.63;100738.56;12151044;19;20804;-84
2023/08/28 07:05:49;;;;;;;;;;;19.50;51.10;;;18.61;52.65;100738.28;12152601;19;19934;-84
2023/08/28 07:09:51;;;;;;;;;;;19.60;51.20;;;18.62;52.63;100733.81;12150936;19;20211;-83
2023/08/28 07:13:53;;;;;;;;;;;19.60;51.10;;;18.67;52.59;100731.59;12141865;19;19919;-83
2023/08/28 07:17:55;;;;;;;;;;;19.70;51.20;;;18.75;52.48;100750.31;12140107;19;19914;-87
2023/08/28 07:22:00;;;;;;;;;;;19.70;51.20;;;18.73;52.62;100746.91;12143110;19;21164;-87
2023/08/28 07:26:02;;;;;;;;;;;19.70;51.00;;;18.83;52.81;100749.63;12143571;19;19922;-86
2023/08/28 07:30:04;;;;;;;;;;;19.80;51.30;;;18.89;52.45;100751.72;12143063;19;19926;-87
2023/08/28 07:34:06;;;;;;;;;;;19.80;51.10;;;18.91;52.80;100750.59;12149922;19;19927;-86
2023/08/28 07:38:07;;;;;;;;;;;19.90;51.00;;;18.99;52.77;100747.25;12149673;19;19919;-86
2023/08/28 07:42:09;;;;;;;;;;;19.90;51.00;;;18.84;52.47;100724.81;12145625;19;19922;-86
2023/08/28 07:46:10;;;;;;;;;;;20.10;51.10;;;19.13;52.86;100761.88;12145211;19;19919;-86
2023/08/28 07:50:11;;;;;;;;;;;20.10;51.00;;;19.20;52.84;100760.38;12145845;19;20226;-86
2023/08/28 07:54:13;;;;;;;;;;;20.20;51.10;;;19.27;52.49;100760.63;12148016;19;20710;-87
2023/08/28 07:58:14;;;;;;;;;;;20.30;51.00;;;19.33;52.48;100757.41;12144870;19;20021;-86
2023/08/28 08:02:15;;;;;;;;;;;20.30;50.90;;;19.35;52.61;100750.16;12141466;19;20734;-88
2023/08/28 08:06:17;;;;;;;;;;;20.40;50.90;;;19.45;52.49;100765.06;12143807;19;20174;-87
2023/08/28 08:10:18;;;;;;;;;;;20.40;50.90;;;19.46;52.75;100750.00;12134601;19;20452;-88
2023/08/28 08:14:20;;;;;;;;;;;20.50;51.00;;;19.57;52.51;100757.78;12138256;19;19931;-87
2023/08/28 08:18:22;;;;;;;;;;;20.50;51.00;;;19.62;52.82;100757.38;12139781;19;20650;-88
2023/08/28 08:22:24;;;;;;;;;;;20.60;50.90;;;19.68;52.60;100764.78;12137947;19;20333;-88
2023/08/28 08:26:26;;;;;;;;;;;20.70;51.00;;;19.53;52.47;100707.91;12139767;19;19935;-88
2023/08/28 08:30:28;;;;;;;;;;;20.70;50.90;;;19.76;52.90;100726.97;12135395;19;21011;-87
2023/08/28 08:34:32;;;;;;;;;;;20.80;50.80;;;19.85;52.92;100737.56;12146953;19;19934;-86
2023/08/28 08:38:33;;;;;;;;;;;20.90;50.70;;;19.91;52.44;100733.47;12141507;19;19958;-86
2023/08/28 08:42:34;;;;;;;;;;;20.90;50.70;;;20.00;52.89;100732.59;12146603;19;19946;-87
2023/08/28 08:46:36;;;;;;;;;;;20.90;50.80;;;19.92;52.74;100703.34;12147987;19;19946;-86
2023/08/28 08:50:37;;;;;;;;;;;21.10;50.80;;;20.07;52.98;100711.66;12141223;19;20645;-86
2023/08/28 08:54:40;;;;;;;;;;;21.20;50.90;;;20.33;52.71;100736.50;12142835;19;20389;-87
2023/08/28 08:58:43;;;;;;;;;;;21.30;50.80;;;20.39;52.80;100729.78;12149074;19;20610;-87
2023/08/28 09:02:45;;;;;;;;;;;21.40;50.80;;;20.44;52.78;100721.34;12146462;19;19930;-86
2023/08/28 09:06:48;;;;;;;;;;;21.50;50.60;;;20.48;52.58;100712.97;12145826;19;20249;-86
2023/08/28 09:10:49;;;;;;;;;;;21.70;50.60;;;20.58;52.62;100723.56;12146521;19;20026;-86
2023/08/28 09:14:53;;;;;;;;;;;21.60;50.50;;;20.68;52.85;100736.75;12145982;19;19923;-86
2023/08/28 09:18:55;;;;;;;;;;;21.70;50.40;;;20.65;52.66;100729.06;12135568;19;19918;-86
2023/08/28 09:22:57;;;;;;;;;;;21.70;50.30;;;20.69;52.75;100743.72;12143964;19;19910;-87
2023/08/28 09:27:00;;;;;;;;;;;21.80;50.30;;;20.77;52.62;100757.91;12145311;19;19934;-87
2023/08/28 09:31:02;;;;;;;;;;;21.80;50.20;;;20.78;52.49;100748.97;12144473;19;19942;-86
2023/08/28 09:35:07;;;;;;;;;;;21.80;50.20;;;20.85;52.61;100756.34;12146613;19;19962;-87
2023/08/28 09:39:09;;;;;;;;;;;21.80;50.00;;;20.83;52.54;100753.00;12158893;19;20705;-87
2023/08/28 09:43:17;;;;;;;;;;;21.80;50.20;;;20.89;52.55;100761.19;12170196;19;19944;-88
2023/08/28 09:47:22;;;;;;;;;;;21.90;50.20;;;20.96;52.45;100769.38;12169222;19;20245;-88
2023/08/28 09:51:37;;;;;;;;;;;21.90;50.20;;;20.88;52.54;100754.22;12169921;19;19926;-87
2023/08/28 09:55:48;;;;;;;;;;;22.00;49.80;;;21.04;52.64;100780.09;12169975;19;20374;-87
2023/08/28 09:59:50;;;;;;;;;;;22.00;50.00;;;21.02;52.57;100776.75;12168233;19;20706;-88
2023/08/28 10:03:52;;;;;;;;;;;22.00;50.00;;;21.08;52.45;100783.25;12172474;19;19931;-87
2023/08/28 10:07:57;;;;;;;;;;;22.00;50.10;;;21.12;52.57;100776.69;12168243;19;19946;-88
2023/08/28 10:12:00;;;;;;;;;;;22.10;49.70;;;21.09;52.68;100777.81;12147452;19;20479;-87
2023/08/28 10:16:11;;;;;;;;;;;22.10;49.80;;;21.08;52.39;100776.13;12130459;19;19930;-87
2023/08/28 10:20:13;;;;;;;;;;;22.10;50.00;;;21.19;52.36;100773.22;12117582;19;19923;-87
2023/08/28 10:24:16;;;;;;;;;;;22.10;50.00;;;21.24;52.34;100764.81;12118544;19;19929;-87
2023/08/28 10:28:19;;;;;;;;;;;22.20;50.00;;;21.10;52.02;100726.34;12130361;19;19923;-86
2023/08/28 10:32:20;;;;;;;;;;;22.30;50.10;;;21.28;52.51;100741.44;12135093;19;19922;-86
2023/08/28 10:36:22;;;;;;;;;;;22.30;50.10;;;21.52;52.09;100759.41;12134547;19;19927;-88
2023/08/28 10:40:24;;;;;;;;;;;22.50;50.10;;;21.56;52.17;100748.31;12128885;19;19915;-88
2023/08/28 10:44:27;;;;;;;;;;;22.50;49.60;;;21.60;52.24;100740.88;12131638;19;19927;-87
2023/08/28 10:48:28;;;;;;;;;;;22.60;49.40;;;21.61;52.12;100730.09;12129208;19;19927;-86
2023/08/28 10:52:31;;;;;;;;;;;22.60;49.40;;;21.63;52.26;100725.47;12127670;19;19922;-87
2023/08/28 10:56:37;;;;;;;;;;;22.70;49.80;;;21.76;51.98;100737.47;12125542;19;20336;-87
2023/08/28 11:00:38;;;;;;;;;;;22.70;49.70;;;21.73;52.15;100727.16;12127477;19;19919;-88
2023/08/28 11:04:40;;;;;;;;;;;22.70;49.70;;;21.76;51.95;100710.91;12129757;19;20709;-88
2023/08/28 11:08:45;;;;;;;;;;;22.80;49.40;;;21.85;52.23;100720.59;12124202;19;19926;-88
2023/08/28 11:12:53;;;;;;;;;;;22.80;49.50;;;21.88;51.91;100720.28;12127088;19;19929;-88
2023/08/28 11:17:24;;;;;;;;;;;22.80;49.50;;;21.92;52.26;100726.09;12125879;19;20697;-87
2023/08/28 11:21:25;;;;;;;;;;;22.80;49.60;;;21.81;52.04;100711.25;12123669;19;19922;-88
2023/08/28 11:25:39;;;;;;;;;;;22.90;49.60;;;21.92;52.14;100732.25;12126599;19;19983;-88
2023/08/28 11:29:40;;;;;;;;;;;22.90;49.60;;;21.99;51.74;100738.63;12124379;19;19922;-87
2023/08/28 11:33:44;;;;;;;;;;;23.00;49.60;;;21.97;52.11;100731.78;12142270;19;19926;-87
2023/08/28 11:37:47;;;;;;;;;;;23.00;49.60;;;22.01;51.70;100736.63;12128146;19;19911;-88
2023/08/28 11:41:53;;;;;;;;;;;23.00;49.60;;;22.08;51.90;100742.13;12124527;19;20567;-88
2023/08/28 11:45:58;;;;;;;;;;;23.00;49.60;;;22.17;52.03;100748.31;12121831;19;19926;-88
2023/08/28 11:50:00;;;;;;;;;;;23.10;49.50;;;22.20;51.61;100764.03;12121948;19;19923;-87
2023/08/28 11:54:03;;;;;;;;;;;23.10;49.50;;;22.16;52.02;100744.00;12124321;19;20266;-86
2023/08/28 11:58:06;;;;;;;;;;;23.10;49.40;;;22.24;52.06;100752.06;12126303;19;19930;-87
2023/08/28 12:02:08;;;;;;;;;;;23.10;49.50;;;22.28;52.01;100756.06;12138313;19;19923;-86
2023/08/28 12:06:12;;;;;;;;;;;23.20;49.40;;;22.23;52.02;100737.91;12135271;19;20669;-85
2023/08/28 12:10:15;;;;;;;;;;;23.20;48.20;;;22.35;51.85;100754.41;12129055;19;19919;-83
2023/08/28 12:14:17;;;;;;;;;;;23.30;49.10;;;22.45;51.46;100770.25;12132415;19;20772;-83
2023/08/28 12:18:19;;;;;;;;;;;23.30;49.20;;;22.43;51.61;100762.44;12131161;19;20653;-83
2023/08/28 12:22:21;;;;;;;;;;;23.40;49.20;;;22.52;51.83;100763.28;12141016;19;20302;-83
2023/08/28 12:26:24;;;;;;;;;;;23.40;49.10;;;22.61;51.88;100765.00;12144764;19;19923;-84
2023/08/28 12:30:25;;;;;;;;;;;23.50;49.00;;;22.64;51.73;100761.19;12132188;19;19923;-86
2023/08/28 12:34:31;;;;;;;;;;;23.50;49.10;;;22.76;51.46;100757.19;12129137;19;19918;-85
2023/08/28 12:38:46;;;;;;;;;;;23.60;49.10;;;22.70;51.27;100740.03;12131637;19;19929;-84
2023/08/28 12:42:54;;;;;;;;;;;23.70;48.60;;;22.76;51.67;100733.22;12138806;19;20486;-85
2023/08/28 12:46:56;;;;;;;;;;;23.70;46.50;;;22.84;51.43;100751.06;12136859;19;20278;-85
2023/08/28 12:50:57;;;;;;;;;;;23.70;48.40;;;22.75;51.36;100732.41;12127464;19;19964;-86
2023/08/28 12:54:59;;;;;;;;;;;23.70;47.60;;;22.87;51.21;100732.94;12131614;19;19926;-85
2023/08/28 12:59:01;;;;;;;;;;;23.80;48.60;;;22.90;51.63;100721.94;12129316;19;19919;-84
2023/08/28 13:03:03;;;;;;;;;;;23.80;48.40;;;22.83;51.43;100693.47;12128781;19;19930;-85
2023/08/28 13:07:05;;;;;;;;;;;23.80;48.60;;;23.01;51.44;100710.16;12139427;19;19923;-84
2023/08/28 13:11:06;;;;;;;;;;;23.90;48.70;;;22.93;51.00;100688.84;12143694;19;19923;-84
2023/08/28 13:15:08;;;;;;;;;;;23.90;48.60;;;23.07;51.01;100696.19;12152919;19;19919;-84
2023/08/28 13:19:21;;;;;;;;;;;24.00;48.60;;;23.08;51.03;100691.69;12140330;19;19922;-85
2023/08/28 13:23:23;;;;;;;;;;;24.00;48.70;;;23.08;51.24;100681.84;12147344;19;20178;-85
2023/08/28 13:27:24;;;;;;;;;;;24.00;47.70;;;23.01;51.26;100670.22;12149278;19;19926;-85
2023/08/28 13:31:26;;;;;;;;;;;24.00;48.30;;;23.12;51.17;100687.69;12148045;19;20742;-85
2023/08/28 13:35:30;;;;;;;;;;;24.00;48.50;;;23.15;50.72;100687.34;12151303;19;20853;-86
2023/08/28 13:39:32;;;;;;;;;;;24.00;48.40;;;23.12;50.88;100677.03;12147159;19;20278;-85
2023/08/28 13:43:34;;;;;;;;;;;24.00;48.10;;;23.12;50.79;100682.38;12143366;19;20716;-85
2023/08/28 13:47:36;;;;;;;;;;;24.00;48.40;;;23.15;50.70;100674.84;12149570;19;20628;-84
2023/08/28 13:51:37;;;;;;;;;;;24.00;48.40;;;23.16;50.84;100675.69;12137462;19;20646;-83
2023/08/28 13:55:38;;;;;;;;;;;24.00;48.50;;;23.17;51.05;100682.69;12140544;19;20682;-84
2023/08/28 13:59:40;;;;;;;;;;;24.00;48.40;;;23.15;50.83;100677.53;12146271;19;19923;-85
2023/08/28 14:03:41;;;;;;;;;;;24.00;48.20;;;23.15;50.83;100682.84;12144104;19;19926;-83
2023/08/28 14:07:43;;;;;;;;;;;24.00;48.30;;;23.19;50.59;100691.34;12147426;19;20669;-85
2023/08/28 14:11:45;;;;;;;;;;;24.00;48.40;;;23.15;50.67;100692.69;12142425;19;20849;-85
2023/08/28 14:15:49;;;;;;;;;;;24.00;48.40;;;23.18;50.44;100709.16;12140378;19;19934;-85
2023/08/28 14:19:51;;;;;;;;;;;24.00;48.00;;;23.01;50.54;100680.88;12142939;19;19926;-85
2023/08/28 14:23:52;;;;;;;;;;;24.00;48.40;;;23.26;50.49;100723.47;12143701;19;19926;-86
2023/08/28 14:27:54;;;;;;;;;;;24.10;48.40;;;23.30;50.84;100722.13;12147640;19;19934;-86
2023/08/28 14:31:56;;;;;;;;;;;24.10;48.40;;;23.13;50.52;100700.84;12140886;19;19963;-86
2023/08/28 14:35:57;;;;;;;;;;;24.10;48.30;;;23.26;50.78;100723.47;12141675;19;19937;-85
2023/08/28 14:39:58;;;;;;;;;;;24.10;48.30;;;23.30;50.79;100728.28;12142958;19;20215;-86
2023/08/28 14:44:00;;;;;;;;;;;24.10;48.30;;;23.30;50.74;100727.47;12144833;19;20275;-86
2023/08/28 14:48:03;;;;;;;;;;;24.20;47.80;;;23.11;50.52;100702.81;12144891;19;19922;-85
2023/08/28 14:52:05;;;;;;;;;;;24.20;48.10;;;23.34;50.67;100740.28;12142866;19;19947;-85
2023/08/28 14:56:07;;;;;;;;;;;24.10;48.10;;;23.27;50.61;100723.28;12135598;19;19930;-84
2023/08/28 15:00:12;;;;;;;;;;;24.10;48.10;;;23.37;50.21;100729.28;12145085;19;20517;-84
2023/08/28 15:04:13;;;;;;;;;;;24.20;48.00;;;23.37;50.12;100728.47;12144818;19;20218;-84
2023/08/28 15:08:15;;;;;;;;;;;24.20;48.10;;;23.33;50.49;100721.78;12142832;19;20715;-84
2023/08/28 15:12:16;;;;;;;;;;;24.20;47.80;;;23.36;50.46;100722.31;12144141;19;19946;-85
2023/08/28 15:16:18;;;;;;;;;;;24.20;48.00;;;23.30;50.45;100716.81;12142489;19;20224;-84
2023/08/28 15:20:19;;;;;;;;;;;24.20;47.90;;;23.27;50.30;100711.81;12147115;19;19922;-84
2023/08/28 15:24:21;;;;;;;;;;;24.20;47.80;;;23.29;50.08;100721.31;12141969;19;19919;-84
2023/08/28 15:28:22;;;;;;;;;;;24.20;47.90;;;23.29;50.43;100721.31;12142209;19;19919;-85
2023/08/28 15:32:24;;;;;;;;;;;24.10;47.70;;;23.29;50.08;100726.63;12145518;19;19931;-85
2023/08/28 15:36:25;;;;;;;;;;;24.10;47.80;;;23.21;49.88;100718.66;12145698;19;20686;-85
2023/08/28 15:40:27;;;;;;;;;;;24.10;47.80;;;23.27;49.89;100733.97;12143265;19;20511;-85
2023/08/28 15:44:28;;;;;;;;;;;24.00;47.90;;;23.15;49.79;100693.50;12141106;19;20723;-85
2023/08/28 15:48:30;;;;;;;;;;;24.00;47.70;;;23.02;49.87;100676.38;12143713;19;19926;-85
2023/08/28 15:52:31;;;;;;;;;;;24.00;47.90;;;23.24;49.90;100707.66;12146389;19;19919;-85
2023/08/28 15:56:33;;;;;;;;;;;24.00;47.90;;;23.17;50.20;100698.69;12150438;19;19915;-85
2023/08/28 16:00:36;;;;;;;;;;;24.00;48.00;;;23.22;49.76;100708.81;12144010;19;19923;-86
2023/08/28 16:04:37;;;;;;;;;;;24.00;48.00;;;23.21;49.91;100701.84;12145355;19;22316;-86
2023/08/28 16:08:39;;;;;;;;;;;24.00;47.90;;;23.01;49.68;100686.19;12141123;19;19939;-86
2023/08/28 16:12:44;;;;;;;;;;;24.00;48.10;;;23.14;49.84;100697.19;12143697;19;21884;-86
2023/08/28 16:16:46;;;;;;;;;;;24.00;48.10;;;23.17;49.99;100696.84;12136885;19;20360;-85
2023/08/28 16:20:47;;;;;;;;;;;24.00;48.20;;;23.22;49.74;100698.97;12136091;19;19922;-85
2023/08/28 16:24:49;;;;;;;;;;;24.00;48.30;;;23.16;49.70;100700.50;12140178;19;19919;-85
2023/08/28 16:28:50;;;;;;;;;;;24.00;48.30;;;23.09;49.65;100694.19;12130741;19;20602;-86
2023/08/28 16:32:53;;;;;;;;;;;24.00;48.30;;;23.10;49.95;100701.16;12117330;19;20753;-84
2023/08/28 16:36:54;;;;;;;;;;;24.00;48.30;;;23.14;50.05;100704.31;12116512;19;20342;-85
2023/08/28 16:40:55;;;;;;;;;;;23.90;48.30;;;23.11;49.81;100699.34;12132059;19;19923;-85
2023/08/28 16:44:57;;;;;;;;;;;23.90;48.30;;;23.13;50.05;100724.81;12127844;19;19918;-84
2023/08/28 16:48:58;;;;;;;;;;;23.90;48.30;;;23.11;49.84;100724.13;12122395;19;20698;-84
2023/08/28 16:53:00;;;;;;;;;;;23.80;48.20;;;23.06;49.61;100725.63;12122234;19;19923;-83
2023/08/28 16:57:02;;;;;;;;;;;23.80;48.30;;;22.91;49.62;100712.94;12131857;19;19919;-83
2023/08/28 17:01:03;;;;;;;;;;;23.80;48.40;;;23.06;49.99;100736.28;12143005;19;20357;-85
2023/08/28 17:05:05;;;;;;;;;;;23.80;48.40;;;23.01;49.98;100717.31;12143469;19;19923;-84
2023/08/28 17:09:06;;;;;;;;;;;23.80;48.50;;;23.06;50.04;100717.63;12133469;19;20776;-84
2023/08/28 17:13:07;;;;;;;;;;;23.80;48.50;;;23.04;49.52;100717.00;12128076;19;20796;-85
2023/08/28 17:17:09;;;;;;;;;;;23.80;48.50;;;22.94;49.73;100701.97;12131095;19;20031;-85
2023/08/28 17:21:11;;;;;;;;;;;23.70;48.40;;;22.90;49.46;100700.66;12133812;19;20206;-83
2023/08/28 17:25:13;;;;;;;;;;;23.60;48.40;;;22.87;49.48;100706.31;12133971;19;19923;-83
2023/08/28 17:29:15;;;;;;;;;;;23.60;48.50;;;22.83;49.87;100714.78;12126952;19;19926;-83
2023/08/28 17:33:17;;;;;;;;;;;23.60;48.50;;;22.79;49.91;100729.41;12138002;19;19933;-82
2023/08/28 17:37:19;;;;;;;;;;;23.50;48.50;;;22.70;49.98;100720.59;12133555;19;19923;-82
2023/08/28 17:41:20;;;;;;;;;;;23.50;48.60;;;22.62;50.14;100716.06;12136419;19;20739;-82
2023/08/28 17:45:21;;;;;;;;;;;23.30;48.60;;;22.61;49.95;100730.38;12136760;19;20025;-82
2023/08/28 17:49:22;;;;;;;;;;;23.30;48.70;;;22.61;49.72;100734.88;12135979;19;20748;-83
2023/08/28 17:53:24;;;;;;;;;;;23.30;48.80;;;22.56;49.71;100735.38;12138231;19;19930;-82
2023/08/28 17:57:25;;;;;;;;;;;23.20;48.80;;;22.50;49.57;100739.50;12134275;19;20034;-82
2023/08/28 18:01:27;;;;;;;;;;;23.20;48.80;;;22.44;49.56;100734.84;12126201;19;19946;-83
2023/08/28 18:05:29;;;;;;;;;;;23.10;48.80;;;22.42;49.79;100744.81;12118025;19;20285;-83
2023/08/28 18:09:30;;;;;;;;;;;23.10;49.00;;;22.38;49.60;100738.13;12136321;19;19919;-83